createdAt,value
2023-01-23T00:00:39.911Z,8.00
2023-01-23T00:03:06.451Z,11.67
2023-01-23T00:05:32.857Z,12.10
2023-01-23T00:07:59.281Z,9.60
2023-01-23T00:10:25.733Z,11.13
2023-01-23T00:12:53.383Z,10.13
2023-01-23T00:15:20.160Z,11.20
2023-01-23T00:17:46.588Z,10.20
2023-01-23T00:20:13.263Z,12.67
2023-01-23T00:22:39.671Z,11.87
2023-01-23T00:25:06.875Z,9.83
2023-01-23T00:27:33.641Z,10.00
2023-01-23T00:30:00.191Z,8.60
2023-01-23T00:32:27.957Z,10.93
2023-01-23T00:34:54.450Z,9.57
2023-01-23T00:37:20.858Z,9.33
2023-01-23T00:39:50.818Z,8.30
2023-01-23T00:42:18.615Z,7.97
2023-01-23T00:44:45.298Z,7.23
2023-01-23T00:47:12.673Z,9.17
2023-01-23T00:49:40.160Z,11.10
2023-01-23T00:52:06.573Z,10.80
2023-01-23T00:54:33.036Z,13.17
2023-01-23T00:56:59.569Z,8.70
2023-01-23T00:59:26.186Z,10.80
2023-01-23T01:01:52.636Z,10.10
2023-01-23T01:04:19.083Z,6.77
2023-01-23T01:06:45.535Z,8.03
2023-01-23T01:09:12.447Z,8.27
2023-01-23T01:11:39.262Z,8.77
2023-01-23T01:14:05.700Z,5.60
2023-01-23T01:16:32.159Z,8.90
2023-01-23T01:18:58.657Z,9.33
2023-01-23T01:21:25.062Z,11.30
2023-01-23T01:23:51.615Z,7.77
2023-01-23T01:26:18.441Z,7.43
2023-01-23T01:28:44.859Z,10.07
2023-01-23T01:31:13.478Z,8.77
2023-01-23T01:33:40.722Z,10.80
2023-01-23T01:36:12.007Z,9.07
2023-01-23T01:38:38.478Z,11.67
2023-01-23T01:41:06.109Z,9.23
2023-01-23T01:43:33.796Z,7.23
2023-01-23T01:46:16.538Z,8.80
2023-01-23T01:48:47.723Z,7.33
2023-01-23T01:51:21.576Z,10.93
2023-01-23T01:53:52.375Z,14.03
2023-01-23T01:56:19.342Z,6.50
2023-01-23T01:58:48.757Z,12.03
2023-01-23T02:01:15.299Z,11.37
2023-01-23T02:03:43.577Z,8.20
2023-01-23T02:06:10.018Z,8.87
2023-01-23T02:08:58.539Z,8.40
2023-01-23T02:11:25.078Z,10.60
2023-01-23T02:13:53.504Z,9.00
2023-01-23T02:16:22.188Z,7.53
2023-01-23T02:18:50.413Z,8.97
2023-01-23T02:21:20.520Z,8.57
2023-01-23T02:24:14.833Z,10.33
2023-01-23T02:26:44.050Z,9.03
2023-01-23T02:29:11.399Z,10.10
2023-01-23T02:31:38.164Z,7.17
2023-01-23T02:34:05.235Z,10.97
2023-01-23T02:36:34.391Z,11.83
2023-01-23T02:39:09.245Z,8.87
2023-01-23T02:41:42.034Z,11.80
2023-01-23T02:44:13.617Z,9.50
2023-01-23T02:46:40.310Z,8.50
2023-01-23T02:49:06.864Z,7.50
2023-01-23T02:51:33.347Z,11.43
2023-01-23T02:53:59.793Z,10.07
2023-01-23T02:56:26.302Z,7.73
2023-01-23T02:59:11.211Z,13.63
2023-01-23T03:01:37.660Z,9.43
2023-01-23T03:04:06.334Z,10.23
2023-01-23T03:06:38.301Z,9.70
2023-01-23T03:09:10.754Z,8.43
2023-01-23T03:11:38.755Z,11.50
2023-01-23T03:14:10.532Z,8.37
2023-01-23T03:16:38.466Z,8.03
2023-01-23T03:19:09.258Z,8.50
2023-01-23T03:21:37.987Z,7.93
2023-01-23T03:24:05.651Z,6.27
2023-01-23T03:26:32.106Z,8.07
2023-01-23T03:29:17.219Z,7.03
2023-01-23T03:31:44.058Z,10.10
2023-01-23T03:34:10.508Z,8.60
2023-01-23T03:36:37.398Z,9.53
2023-01-23T03:39:24.195Z,11.27
2023-01-23T03:41:51.274Z,12.23
2023-01-23T03:44:19.077Z,8.60
2023-01-23T03:46:47.168Z,8.00
2023-01-23T03:49:13.842Z,10.03
2023-01-23T03:51:40.464Z,9.70
2023-01-23T03:54:07.071Z,7.63
2023-01-23T03:56:33.634Z,10.07
2023-01-23T03:59:00.187Z,8.73
2023-01-23T04:01:26.591Z,8.07
2023-01-23T04:03:53.018Z,9.90
2023-01-23T04:06:19.696Z,9.73
2023-01-23T04:08:46.165Z,8.33
2023-01-23T04:11:12.616Z,8.90
2023-01-23T04:13:39.344Z,9.97
2023-01-23T04:16:06.686Z,9.57
2023-01-23T04:18:33.387Z,9.43
2023-01-23T04:21:00.045Z,9.37
2023-01-23T04:23:26.605Z,10.17
2023-01-23T04:25:53.236Z,9.30
2023-01-23T04:28:20.346Z,11.70
2023-01-23T04:30:47.094Z,10.60
2023-01-23T04:33:13.648Z,11.27
2023-01-23T04:35:40.044Z,10.67
2023-01-23T04:38:06.434Z,10.70
2023-01-23T04:40:32.853Z,9.70
2023-01-23T04:42:59.423Z,10.07
2023-01-23T04:45:26.026Z,9.70
2023-01-23T04:47:52.547Z,12.60
2023-01-23T04:50:19.319Z,11.03
2023-01-23T04:52:45.978Z,8.40
2023-01-23T04:55:12.596Z,9.33
2023-01-23T04:57:39.010Z,9.13
2023-01-23T05:00:07.273Z,9.70
2023-01-23T05:02:33.786Z,10.93
2023-01-23T05:05:00.220Z,11.53
2023-01-23T05:07:26.674Z,10.47
2023-01-23T05:09:53.243Z,9.50
2023-01-23T05:12:19.774Z,8.90
2023-01-23T05:14:46.171Z,12.00
2023-01-23T05:17:12.549Z,12.73
2023-01-23T05:19:38.950Z,11.40
2023-01-23T05:22:05.355Z,13.17
2023-01-23T05:24:31.949Z,11.50
2023-01-23T05:26:58.397Z,13.23
2023-01-23T05:29:24.830Z,10.63
2023-01-23T05:31:51.299Z,12.60
2023-01-23T05:34:17.739Z,12.53
2023-01-23T05:36:44.178Z,11.67
2023-01-23T05:39:10.592Z,14.97
2023-01-23T05:41:36.993Z,11.70
2023-01-23T05:44:03.389Z,15.97
2023-01-23T05:46:29.867Z,11.13
2023-01-23T05:48:56.450Z,9.13
2023-01-23T05:51:23.933Z,13.60
2023-01-23T05:53:50.377Z,13.37
2023-01-23T05:56:16.849Z,11.83
2023-01-23T05:58:43.249Z,10.27
2023-01-23T06:01:09.817Z,13.67
2023-01-23T06:03:36.484Z,10.20
2023-01-23T06:06:02.951Z,8.97
2023-01-23T06:08:29.408Z,10.10
2023-01-23T06:10:58.726Z,13.47
2023-01-23T06:13:26.268Z,13.87
2023-01-23T06:15:52.967Z,9.87
2023-01-23T06:18:19.829Z,9.93
2023-01-23T06:20:46.872Z,10.93
2023-01-23T06:23:13.660Z,11.00
2023-01-23T06:25:40.575Z,13.23
2023-01-23T06:28:06.991Z,15.67
2023-01-23T06:30:33.457Z,11.43
2023-01-23T06:33:00.175Z,9.93
2023-01-23T06:35:26.682Z,12.30
2023-01-23T06:37:53.115Z,10.03
2023-01-23T06:40:19.891Z,11.47
2023-01-23T06:42:46.476Z,12.77
2023-01-23T06:45:12.894Z,14.10
2023-01-23T06:47:39.393Z,12.67
2023-01-23T06:50:06.337Z,11.63
2023-01-23T06:52:33.344Z,13.60
2023-01-23T06:54:59.896Z,16.00
2023-01-23T06:57:26.305Z,11.83
2023-01-23T06:59:52.807Z,15.23
2023-01-23T07:02:19.402Z,13.40
2023-01-23T07:04:45.785Z,15.10
2023-01-23T07:07:12.167Z,14.73
2023-01-23T07:09:38.548Z,15.37
2023-01-23T07:12:05.376Z,15.63
2023-01-23T07:14:32.235Z,14.33
2023-01-23T07:16:59.445Z,16.37
2023-01-23T07:19:26.536Z,12.33
2023-01-23T07:21:53.099Z,13.17
2023-01-23T07:24:19.571Z,15.37
2023-01-23T07:26:46.065Z,13.07
2023-01-23T07:29:12.549Z,12.83
2023-01-23T07:31:39.118Z,15.43
2023-01-23T07:34:05.621Z,17.03
2023-01-23T07:36:32.110Z,12.57
2023-01-23T07:38:59.067Z,13.73
2023-01-23T07:41:25.800Z,18.90
2023-01-23T07:43:52.314Z,15.57
2023-01-23T07:46:18.788Z,17.73
2023-01-23T07:48:45.258Z,16.07
2023-01-23T07:51:12.057Z,14.87
2023-01-23T07:53:38.558Z,17.57
2023-01-23T07:56:06.194Z,16.37
2023-01-23T07:58:32.835Z,17.03
2023-01-23T08:00:59.693Z,15.40
2023-01-23T08:03:29.078Z,18.90
2023-01-23T08:05:55.634Z,16.50
2023-01-23T08:08:22.074Z,16.53
2023-01-23T08:10:48.537Z,16.87
2023-01-23T08:13:14.934Z,17.60
2023-01-23T08:15:41.497Z,18.17
2023-01-23T08:18:07.967Z,17.93
2023-01-23T08:20:34.400Z,18.33
2023-01-23T08:23:02.277Z,17.07
2023-01-23T08:25:28.962Z,20.50
2023-01-23T08:27:55.576Z,17.57
2023-01-23T08:30:22.505Z,16.40
2023-01-23T08:32:49.168Z,17.80
2023-01-23T08:35:16.715Z,14.67
2023-01-23T08:37:43.319Z,16.50
2023-01-23T08:40:12.015Z,18.20
2023-01-23T08:42:38.667Z,17.93
2023-01-23T08:45:05.629Z,17.53
2023-01-23T08:47:36.766Z,18.83
2023-01-23T08:50:05.076Z,18.23
2023-01-23T08:52:31.728Z,15.70
2023-01-23T08:54:58.180Z,18.33
2023-01-23T08:57:24.578Z,18.80
2023-01-23T08:59:50.968Z,16.97
2023-01-23T09:02:17.471Z,16.33
2023-01-23T09:04:43.925Z,16.93
2023-01-23T09:07:10.510Z,18.53
2023-01-23T09:09:37.131Z,19.43
2023-01-23T09:12:04.182Z,16.63
2023-01-23T09:14:30.804Z,16.90
2023-01-23T09:16:57.297Z,18.73
2023-01-23T09:19:24.139Z,20.80
2023-01-23T09:21:53.245Z,19.77
2023-01-23T09:24:19.680Z,18.00
2023-01-23T09:26:46.343Z,17.73
2023-01-23T09:29:12.744Z,20.70
2023-01-23T09:31:39.237Z,16.20
2023-01-23T09:34:07.757Z,19.00
2023-01-23T09:36:42.878Z,18.03
2023-01-23T09:39:12.884Z,17.20
2023-01-23T09:41:40.488Z,22.33
2023-01-23T09:44:22.263Z,18.10
2023-01-23T09:46:55.210Z,19.30
2023-01-23T09:49:53.481Z,16.87
2023-01-23T09:52:22.375Z,22.77
2023-01-23T09:54:55.788Z,20.53
2023-01-23T09:57:25.985Z,19.00
2023-01-23T10:00:18.081Z,19.53
2023-01-23T10:02:45.181Z,24.63
2023-01-23T10:05:16.274Z,17.60
2023-01-23T10:07:53.801Z,18.53
2023-01-23T10:10:52.252Z,16.37
2023-01-23T10:13:24.018Z,18.60
2023-01-23T10:16:12.083Z,19.70
2023-01-23T10:18:48.754Z,17.90
2023-01-23T10:21:29.422Z,15.50
2023-01-23T10:24:01.813Z,20.73
2023-01-23T10:26:33.120Z,18.43
2023-01-23T10:29:06.492Z,16.97
2023-01-23T10:31:38.956Z,20.60
2023-01-23T10:34:22.430Z,20.60
2023-01-23T10:37:02.463Z,19.00
2023-01-23T10:39:46.242Z,22.53
2023-01-23T10:42:13.834Z,19.83
2023-01-23T10:44:40.320Z,21.17
2023-01-23T10:47:43.225Z,18.20
2023-01-23T10:50:10.545Z,20.00
2023-01-23T10:52:41.395Z,18.63
2023-01-23T10:55:27.789Z,17.23
2023-01-23T10:57:57.472Z,19.93
2023-01-23T11:00:36.313Z,20.93
2023-01-23T11:03:18.470Z,20.70
2023-01-23T11:05:53.399Z,20.93
2023-01-23T11:08:24.391Z,18.47
2023-01-23T11:10:51.138Z,19.13
2023-01-23T11:13:35.887Z,19.20
2023-01-23T11:16:02.638Z,19.93
2023-01-23T11:18:52.624Z,21.77
2023-01-23T11:21:32.811Z,19.90
2023-01-23T11:24:30.597Z,19.03
2023-01-23T11:27:13.386Z,17.97
2023-01-23T11:30:14.091Z,18.67
2023-01-23T11:32:51.736Z,21.70
2023-01-23T11:35:47.382Z,19.17
2023-01-23T11:38:30.265Z,21.30
2023-01-23T11:40:57.493Z,20.53
2023-01-23T11:43:24.080Z,21.13
2023-01-23T11:45:57.422Z,20.80
2023-01-23T11:48:35.929Z,24.93
2023-01-23T11:51:16.742Z,19.93
2023-01-23T11:54:21.269Z,18.00
2023-01-23T11:57:01.347Z,20.27
2023-01-23T11:59:36.700Z,23.13
2023-01-23T12:02:17.828Z,18.40
2023-01-23T12:04:53.004Z,24.77
2023-01-23T12:07:21.768Z,19.87
2023-01-23T12:10:19.239Z,20.90
2023-01-23T12:13:15.043Z,23.60
2023-01-23T12:16:07.378Z,21.90
2023-01-23T12:19:00.977Z,25.47
2023-01-23T12:21:36.667Z,25.27
2023-01-23T12:24:17.938Z,21.67
2023-01-23T12:26:57.746Z,24.37
2023-01-23T12:29:44.062Z,22.80
2023-01-23T12:32:28.752Z,25.30
2023-01-23T12:35:20.275Z,23.93
2023-01-23T12:38:09.521Z,24.83
2023-01-23T12:40:46.723Z,21.57
2023-01-23T12:43:34.945Z,28.70
2023-01-23T12:46:06.280Z,27.13
2023-01-23T12:48:52.095Z,26.13
2023-01-23T12:51:22.581Z,24.80
2023-01-23T12:53:54.172Z,28.57
2023-01-23T12:56:26.259Z,25.77
2023-01-23T12:59:04.852Z,27.03
2023-01-23T13:02:02.343Z,27.60
2023-01-23T13:04:37.577Z,23.90
2023-01-23T13:07:24.586Z,24.93
2023-01-23T13:10:20.062Z,25.90
2023-01-23T13:12:46.826Z,23.97
2023-01-23T13:15:39.043Z,27.17
2023-01-23T13:18:21.358Z,25.70
2023-01-23T13:21:32.797Z,21.23
2023-01-23T13:24:46.520Z,27.30
2023-01-23T13:27:47.423Z,26.67
2023-01-23T13:30:24.145Z,24.30
2023-01-23T13:32:55.119Z,20.50
2023-01-23T13:35:39.828Z,21.63
2023-01-23T13:38:21.401Z,21.63
2023-01-23T13:41:08.447Z,23.63
2023-01-23T13:43:50.145Z,25.70
2023-01-23T13:46:32.724Z,22.40
2023-01-23T14:21:41.754Z,21.93
2023-01-23T14:24:25.586Z,22.53
2023-01-23T14:27:02.517Z,22.60
2023-01-23T14:29:30.972Z,25.13
2023-01-23T14:31:57.661Z,22.30
2023-01-23T14:34:25.540Z,22.13
2023-01-23T14:37:04.076Z,22.77
2023-01-23T14:39:32.637Z,25.13
2023-01-23T14:42:02.651Z,22.20
2023-01-23T14:44:42.709Z,25.90
2023-01-23T14:47:20.035Z,22.63
2023-01-23T14:49:48.185Z,18.90
2023-01-23T14:52:24.722Z,25.87
2023-01-23T14:54:54.370Z,21.67
2023-01-23T14:57:23.339Z,23.17
2023-01-23T14:59:50.848Z,21.57
2023-01-23T15:02:36.024Z,26.30
2023-01-23T15:05:28.832Z,22.53
2023-01-23T15:08:03.872Z,25.37
2023-01-23T15:10:32.650Z,21.73
2023-01-23T15:13:03.455Z,22.87
2023-01-23T15:15:31.286Z,24.63
2023-01-23T15:17:59.910Z,27.40
2023-01-23T15:20:38.381Z,24.40
2023-01-23T15:23:31.475Z,20.73
2023-01-23T15:26:18.011Z,21.93
2023-01-23T15:29:01.032Z,24.37
2023-01-23T15:31:40.408Z,22.77
2023-01-23T15:34:16.279Z,20.53
2023-01-23T15:36:47.096Z,20.77
2023-01-23T15:39:23.141Z,19.67
2023-01-23T15:41:53.053Z,19.77
2023-01-23T15:44:21.391Z,19.60
2023-01-23T15:46:48.105Z,18.60
2023-01-23T15:49:25.424Z,18.27
2023-01-23T15:51:55.053Z,18.20
2023-01-23T15:54:33.762Z,22.30
2023-01-23T15:57:07.496Z,22.17
2023-01-23T15:59:35.535Z,23.63
2023-01-23T16:02:01.965Z,18.43
2023-01-23T16:04:28.395Z,20.10
2023-01-23T16:06:54.825Z,21.37
2023-01-23T16:09:24.498Z,17.83
2023-01-23T16:11:51.475Z,21.63
2023-01-23T16:14:18.679Z,25.03
2023-01-23T16:16:45.711Z,19.07
2023-01-23T16:19:12.188Z,18.67
2023-01-23T16:21:39.065Z,20.07
2023-01-23T16:24:06.732Z,17.57
2023-01-23T16:26:34.034Z,20.87
2023-01-23T16:29:13.026Z,21.90
2023-01-23T16:31:40.145Z,26.47
2023-01-23T16:34:06.765Z,19.50
2023-01-23T16:36:33.231Z,23.23
2023-01-23T16:38:59.898Z,21.67
2023-01-23T16:41:26.331Z,20.43
2023-01-23T16:43:52.920Z,20.43
2023-01-23T16:46:20.371Z,19.73
2023-01-23T16:48:46.810Z,24.97
2023-01-23T16:51:19.521Z,21.17
2023-01-23T16:53:51.847Z,20.57
2023-01-23T16:56:21.781Z,22.20
2023-01-23T16:58:48.269Z,22.27
2023-01-23T17:01:16.466Z,24.70
2023-01-23T17:03:45.258Z,18.43
2023-01-23T17:06:14.570Z,22.03
2023-01-23T17:08:41.389Z,23.73
2023-01-23T17:11:08.137Z,21.10
2023-01-23T17:13:35.843Z,22.67
2023-01-23T17:16:03.542Z,20.83
2023-01-23T17:18:32.870Z,22.37
2023-01-23T17:20:59.350Z,22.57
2023-01-23T17:23:26.065Z,20.40
2023-01-23T17:26:00.419Z,21.90
2023-01-23T17:28:27.621Z,21.63
2023-01-23T17:30:54.183Z,20.97
2023-01-23T17:33:26.157Z,21.83
2023-01-23T17:35:53.562Z,20.97
2023-01-23T17:38:23.032Z,22.73
2023-01-23T17:40:49.965Z,18.23
2023-01-23T17:43:17.095Z,22.10
2023-01-23T17:45:45.017Z,23.23
2023-01-23T17:48:14.089Z,18.10
2023-01-23T17:50:42.925Z,24.50
2023-01-23T17:53:12.087Z,22.43
2023-01-23T17:55:41.048Z,23.40
2023-01-23T17:58:08.092Z,24.13
2023-01-23T18:00:34.566Z,22.23
2023-01-23T18:03:01.760Z,23.17
2023-01-23T18:05:28.349Z,23.13
2023-01-23T18:07:54.779Z,26.47
2023-01-23T18:10:22.181Z,22.70
2023-01-23T18:13:17.570Z,26.27
2023-01-23T18:15:49.955Z,25.33
2023-01-23T18:18:22.918Z,19.20
2023-01-23T18:20:54.610Z,20.97
2023-01-23T18:23:25.744Z,22.47
2023-01-23T18:26:18.254Z,25.20
2023-01-23T18:29:10.973Z,21.57
2023-01-23T18:31:43.494Z,25.93
2023-01-23T18:34:37.135Z,22.20
2023-01-23T18:37:21.231Z,26.60
2023-01-23T18:40:00.996Z,23.27
2023-01-23T18:42:42.496Z,22.57
2023-01-23T18:45:11.704Z,24.03
2023-01-23T18:47:38.486Z,28.60
2023-01-23T18:50:06.575Z,28.30
2023-01-23T18:52:51.869Z,25.33
2023-01-23T18:55:41.695Z,26.47
2023-01-23T18:58:34.118Z,26.27
2023-01-23T19:01:28.880Z,23.87
2023-01-23T19:03:55.603Z,25.47
2023-01-23T19:06:25.686Z,26.60
2023-01-23T19:08:54.204Z,29.83
2023-01-23T19:11:35.760Z,26.43
2023-01-23T19:14:05.295Z,33.23
2023-01-23T19:16:35.878Z,24.97
2023-01-23T19:19:40.348Z,27.37
2023-01-23T19:22:14.183Z,30.27
2023-01-23T19:24:41.013Z,28.90
2023-01-23T19:27:20.546Z,26.53
2023-01-23T19:29:47.162Z,31.23
2023-01-23T19:32:14.028Z,29.23
2023-01-23T19:34:40.746Z,31.50
2023-01-23T19:37:08.070Z,30.03
2023-01-23T19:39:34.529Z,26.57
2023-01-23T19:42:00.997Z,27.33
2023-01-23T19:44:30.190Z,26.90
2023-01-23T19:46:56.720Z,24.73
2023-01-23T19:49:23.586Z,27.37
2023-01-23T19:51:50.028Z,30.57
2023-01-23T19:54:16.940Z,27.67
2023-01-23T19:56:46.342Z,25.73
2023-01-23T19:59:12.856Z,26.03
2023-01-23T20:01:43.390Z,26.97
2023-01-23T20:04:15.957Z,28.30
2023-01-23T20:06:45.158Z,27.07
2023-01-23T20:09:14.426Z,25.93
2023-01-23T20:11:41.734Z,29.93
2023-01-23T20:14:08.188Z,26.73
2023-01-23T20:16:34.708Z,28.27
2023-01-23T20:19:01.398Z,28.87
2023-01-23T20:21:27.828Z,26.57
2023-01-23T20:23:54.287Z,29.77
2023-01-23T20:26:21.369Z,33.07
2023-01-23T20:28:55.195Z,29.83
2023-01-23T20:31:22.168Z,23.40
2023-01-23T20:33:49.012Z,28.07
2023-01-23T20:36:15.964Z,30.87
2023-01-23T20:38:42.863Z,31.23
2023-01-23T20:41:18.770Z,29.80
2023-01-23T20:43:45.384Z,29.30
2023-01-23T20:46:14.235Z,25.17
2023-01-23T20:48:44.167Z,27.87
2023-01-23T20:51:11.349Z,26.83
2023-01-23T20:53:40.299Z,28.43
2023-01-23T20:56:08.076Z,28.43
2023-01-23T20:58:54.604Z,29.33
2023-01-23T21:01:22.422Z,30.47
2023-01-23T21:03:50.325Z,29.10
2023-01-23T21:06:18.073Z,30.30
2023-01-23T21:08:45.161Z,28.83
2023-01-23T21:11:17.783Z,34.30
2023-01-23T21:13:50.828Z,28.97
2023-01-23T21:16:17.796Z,30.80
2023-01-23T21:18:46.803Z,31.17
2023-01-23T21:21:16.643Z,31.57
2023-01-23T21:23:45.596Z,31.53
2023-01-23T21:26:12.426Z,26.77
2023-01-23T21:28:39.320Z,30.63
2023-01-23T21:31:10.903Z,28.87
2023-01-23T21:33:40.494Z,31.23
2023-01-23T21:36:07.490Z,33.50
2023-01-23T21:38:33.913Z,29.70
2023-01-23T21:41:02.649Z,26.90
2023-01-23T21:43:29.147Z,32.63
2023-01-23T21:45:57.166Z,30.63
2023-01-23T21:48:24.221Z,30.77
2023-01-23T21:50:50.807Z,26.33
2023-01-23T21:53:17.205Z,30.43
2023-01-23T21:55:43.712Z,28.10
2023-01-23T21:58:10.122Z,27.07
2023-01-23T22:00:58.577Z,31.57
2023-01-23T22:03:24.995Z,30.03
2023-01-23T22:05:51.470Z,33.00
